createdAt,value
2023-04-14T00:00:02.083Z,14.07
2023-04-14T00:02:29.242Z,15.50
2023-04-14T00:04:59.057Z,12.82
2023-04-14T00:07:26.110Z,19.30
2023-04-14T00:09:53.069Z,20.35
2023-04-14T00:12:19.929Z,20.48
2023-04-14T00:14:47.216Z,24.70
2023-04-14T00:17:14.616Z,24.85
2023-04-14T00:19:41.701Z,18.60
2023-04-14T00:22:08.656Z,21.17
2023-04-14T00:24:43.427Z,18.25
2023-04-14T00:27:11.251Z,19.98
2023-04-14T00:29:41.031Z,17.83
2023-04-14T00:32:08.268Z,19.75
2023-04-14T00:34:35.301Z,20.48
2023-04-14T00:37:02.112Z,14.10
2023-04-14T00:39:29.205Z,22.27
2023-04-14T00:41:56.753Z,16.65
2023-04-14T00:44:25.610Z,15.07
2023-04-14T00:46:52.945Z,14.85
2023-04-14T00:49:20.290Z,15.90
2023-04-14T00:51:48.212Z,16.98
2023-04-14T00:54:18.254Z,16.80
2023-04-14T00:56:47.210Z,20.52
2023-04-14T00:59:16.696Z,13.02
2023-04-14T01:01:43.792Z,12.48
2023-04-14T01:04:11.468Z,16.70
2023-04-14T01:06:38.444Z,15.23
2023-04-14T01:09:06.597Z,20.80
2023-04-14T01:11:46.620Z,16.13
2023-04-14T01:14:46.743Z,15.32
2023-04-14T01:17:38.287Z,12.30
2023-04-14T01:20:31.751Z,12.38
2023-04-14T01:23:25.536Z,12.70
2023-04-14T01:29:03.117Z,20.00
2023-04-14T01:32:01.089Z,19.40
2023-04-14T01:34:56.565Z,17.52
2023-04-14T01:37:34.483Z,20.52
2023-04-14T01:40:08.183Z,15.77
2023-04-14T01:42:38.618Z,14.75
2023-04-14T01:45:12.190Z,15.70
2023-04-14T01:47:44.770Z,19.23
2023-04-14T01:50:13.546Z,19.30
2023-04-14T01:52:43.235Z,21.50
2023-04-14T01:55:11.711Z,19.33
2023-04-14T01:57:39.956Z,16.65
2023-04-14T02:00:10.219Z,17.48
2023-04-14T02:02:39.897Z,16.65
2023-04-14T02:05:10.245Z,17.67
2023-04-14T02:07:38.467Z,20.58
2023-04-14T02:10:09.826Z,17.63
2023-04-14T02:12:41.480Z,14.85
2023-04-14T02:15:13.633Z,12.02
2023-04-14T02:17:42.060Z,15.27
2023-04-14T02:20:10.874Z,16.77
2023-04-14T02:22:37.886Z,19.38
2023-04-14T02:25:05.744Z,15.68
2023-04-14T02:27:53.251Z,18.75
2023-04-14T02:30:38.159Z,16.25
2023-04-14T02:33:09.686Z,17.42
2023-04-14T02:36:19.311Z,15.43
2023-04-14T02:38:48.475Z,15.95
2023-04-14T02:41:27.903Z,11.25
2023-04-14T02:44:23.575Z,15.07
2023-04-14T02:47:07.150Z,14.32
2023-04-14T02:49:40.790Z,13.07
2023-04-14T02:52:11.239Z,11.52
2023-04-14T02:54:41.157Z,13.43
2023-04-14T02:57:09.162Z,16.40
2023-04-14T02:59:37.959Z,12.75
2023-04-14T03:02:06.348Z,18.05
2023-04-14T03:04:35.692Z,13.68
2023-04-14T03:07:08.424Z,13.88
2023-04-14T03:09:36.458Z,15.32
2023-04-14T03:12:05.123Z,21.75
2023-04-14T03:14:32.516Z,18.02
2023-04-14T03:16:59.970Z,18.33
2023-04-14T03:19:28.354Z,22.25
2023-04-14T03:21:58.834Z,22.10
2023-04-14T03:24:31.207Z,24.45
2023-04-14T03:27:05.170Z,37.55
2023-04-14T03:29:39.235Z,20.90
2023-04-14T03:32:08.774Z,29.13
2023-04-14T03:34:44.170Z,27.08
2023-04-14T03:37:11.996Z,19.90
2023-04-14T03:39:40.779Z,18.20
2023-04-14T03:42:13.995Z,20.20
2023-04-14T03:47:10.745Z,17.38
2023-04-14T03:49:39.486Z,19.50
2023-04-14T03:52:10.880Z,14.70
2023-04-14T03:54:40.968Z,18.02
2023-04-14T03:57:11.025Z,19.58
2023-04-14T03:59:40.670Z,21.98
2023-04-14T04:02:09.508Z,18.73
2023-04-14T04:04:37.742Z,19.30
2023-04-14T04:07:10.456Z,19.23
2023-04-14T04:09:39.217Z,21.92
2023-04-14T04:12:07.935Z,18.08
2023-04-14T04:14:39.072Z,20.95
2023-04-14T04:17:08.638Z,16.00
2023-04-14T04:19:37.504Z,16.17
2023-04-14T04:22:05.699Z,12.57
2023-04-14T04:24:38.882Z,14.48
2023-04-14T04:27:11.950Z,14.60
2023-04-14T04:29:44.369Z,43.33
2023-04-14T04:32:11.605Z,37.63
2023-04-14T04:34:39.614Z,36.92
2023-04-14T04:37:07.256Z,32.38
2023-04-14T04:39:34.135Z,22.90
2023-04-14T04:42:06.264Z,24.95
2023-04-14T04:44:34.518Z,21.52
2023-04-14T04:47:02.522Z,23.52
2023-04-14T04:49:29.514Z,21.25
2023-04-14T04:52:00.190Z,17.38
2023-04-14T04:54:27.217Z,19.25
2023-04-14T04:56:54.207Z,20.42
2023-04-14T04:59:21.086Z,18.42
2023-04-14T05:01:48.089Z,17.05
2023-04-14T05:04:15.695Z,16.40
2023-04-14T05:06:42.814Z,16.75
2023-04-14T05:09:09.778Z,13.55
2023-04-14T05:11:36.827Z,17.52
2023-04-14T05:14:04.265Z,19.80
2023-04-14T05:16:32.093Z,23.17
2023-04-14T05:18:59.870Z,18.67
2023-04-14T05:21:27.073Z,35.22
2023-04-14T05:23:54.173Z,39.53
2023-04-14T05:28:52.618Z,33.85
2023-04-14T05:31:20.588Z,24.55
2023-04-14T05:33:47.464Z,30.02
2023-04-14T05:36:14.512Z,32.03
2023-04-14T05:38:41.650Z,25.27
2023-04-14T05:41:08.844Z,26.60
2023-04-14T05:43:35.943Z,23.05
2023-04-14T05:46:02.993Z,20.58
2023-04-14T05:48:31.054Z,26.58
2023-04-14T05:50:58.390Z,23.20
2023-04-14T05:53:25.943Z,18.40
2023-04-14T05:55:53.595Z,20.95
2023-04-14T05:58:20.741Z,18.10
2023-04-14T06:00:47.787Z,16.23
2023-04-14T06:03:16.861Z,20.60
2023-04-14T06:05:44.202Z,21.77
2023-04-14T06:08:11.249Z,18.45
2023-04-14T06:10:38.295Z,18.13
2023-04-14T06:13:05.424Z,22.50
2023-04-14T06:15:32.453Z,14.57
2023-04-14T06:18:00.773Z,15.77
2023-04-14T06:20:28.222Z,13.68
2023-04-14T06:22:56.053Z,16.52
2023-04-14T06:25:23.243Z,12.82
2023-04-14T06:27:50.331Z,16.45
2023-04-14T06:30:17.303Z,17.08
2023-04-14T06:32:44.295Z,14.02
2023-04-14T06:35:18.996Z,16.38
2023-04-14T06:37:46.319Z,12.50
2023-04-14T06:40:13.632Z,11.93
2023-04-14T06:42:40.619Z,13.82
2023-04-14T06:45:08.408Z,11.65
2023-04-14T06:47:35.305Z,11.20
2023-04-14T06:50:03.298Z,10.73
2023-04-14T06:52:30.513Z,11.95
2023-04-14T06:54:57.600Z,13.70
2023-04-14T06:57:25.567Z,15.43
2023-04-14T06:59:53.264Z,8.52
2023-04-14T07:02:20.408Z,15.68
2023-04-14T07:04:47.525Z,10.73
2023-04-14T07:07:16.332Z,10.05
2023-04-14T07:09:43.647Z,13.50
2023-04-14T07:12:16.045Z,38.60
2023-04-14T07:14:43.137Z,17.13
2023-04-14T07:17:10.267Z,10.30
2023-04-14T07:19:37.566Z,10.57
2023-04-14T07:22:04.469Z,10.70
2023-04-14T07:24:31.374Z,11.10
2023-04-14T07:26:58.261Z,9.55
2023-04-14T07:29:27.349Z,7.25
2023-04-14T07:31:54.592Z,8.50
2023-04-14T07:34:21.611Z,13.13
2023-04-14T07:36:51.704Z,7.63
2023-04-14T07:39:22.844Z,11.13
2023-04-14T07:41:50.316Z,8.80
2023-04-14T07:44:17.450Z,8.80
2023-04-14T07:46:44.720Z,6.70
2023-04-14T07:49:11.983Z,8.98
2023-04-14T07:51:40.069Z,6.20
2023-04-14T07:54:07.483Z,6.35
2023-04-14T07:56:34.377Z,9.35
2023-04-14T07:59:01.784Z,9.88
2023-04-14T08:01:29.318Z,7.93
2023-04-14T08:03:56.443Z,10.45
2023-04-14T08:06:23.888Z,10.57
2023-04-14T08:08:50.880Z,12.48
2023-04-14T08:11:18.063Z,10.63
2023-04-14T08:13:45.017Z,9.57
2023-04-14T08:16:12.276Z,11.60
2023-04-14T08:18:41.572Z,10.93
2023-04-14T08:21:08.631Z,7.90
2023-04-14T08:23:35.674Z,10.55
2023-04-14T08:26:06.203Z,8.73
2023-04-14T08:28:33.195Z,8.95
2023-04-14T08:31:00.028Z,5.93
2023-04-14T08:33:27.312Z,7.28
2023-04-14T08:35:59.602Z,7.10
2023-04-14T08:38:28.848Z,8.30
2023-04-14T08:40:56.936Z,6.38
2023-04-14T08:43:24.040Z,6.45
2023-04-14T08:45:53.498Z,8.23
2023-04-14T08:48:25.050Z,7.85
2023-04-14T08:53:48.952Z,7.93
2023-04-14T08:56:18.547Z,8.40
2023-04-14T08:58:45.825Z,5.75
2023-04-14T09:01:13.798Z,7.18
2023-04-14T09:03:41.438Z,6.40
2023-04-14T09:06:09.327Z,5.85
2023-04-14T09:08:36.855Z,5.65
2023-04-14T09:11:04.495Z,5.45
2023-04-14T09:13:31.965Z,6.22
2023-04-14T09:16:00.265Z,5.05
2023-04-14T09:18:28.563Z,6.85
2023-04-14T09:21:49.700Z,5.18
2023-04-14T09:23:42.976Z,5.90
2023-04-14T09:26:10.726Z,3.47
2023-04-14T09:28:37.865Z,4.75
2023-04-14T09:31:05.619Z,3.08
2023-04-14T09:33:34.292Z,5.18
2023-04-14T09:36:01.415Z,4.50
2023-04-14T09:38:39.419Z,5.97
2023-04-14T09:41:07.186Z,6.13
2023-04-14T09:43:34.943Z,3.90
2023-04-14T09:46:08.752Z,2.72
2023-04-14T09:48:37.827Z,4.85
2023-04-14T09:51:09.972Z,4.82
2023-04-14T09:53:38.419Z,2.88
2023-04-14T09:56:11.581Z,5.90
2023-04-14T09:58:44.775Z,3.22
2023-04-14T10:01:17.698Z,8.43
2023-04-14T10:03:49.760Z,3.20
2023-04-14T10:06:18.110Z,4.93
2023-04-14T10:08:54.397Z,4.88
2023-04-14T10:11:36.022Z,3.08
2023-04-14T10:14:06.523Z,6.03
2023-04-14T10:16:34.845Z,3.78
2023-04-14T10:19:03.729Z,4.20
2023-04-14T10:21:31.615Z,3.30
2023-04-14T10:23:58.785Z,2.95
2023-04-14T10:26:26.731Z,3.22
2023-04-14T10:28:56.298Z,4.25
2023-04-14T10:31:36.994Z,4.15
2023-04-14T10:34:15.819Z,2.40
2023-04-14T10:36:44.224Z,4.57
2023-04-14T10:39:12.950Z,3.72
2023-04-14T10:41:43.052Z,2.10
2023-04-14T10:44:32.933Z,3.70
2023-04-14T10:47:04.805Z,3.67
2023-04-14T10:49:34.981Z,4.30
2023-04-14T10:52:27.731Z,4.57
2023-04-14T10:55:07.767Z,2.38
2023-04-14T10:57:46.171Z,7.18
2023-04-14T11:00:24.231Z,3.13
2023-04-14T11:03:03.384Z,2.83
2023-04-14T11:05:34.232Z,3.83
2023-04-14T11:08:12.994Z,3.65
2023-04-14T11:10:42.024Z,1.98
2023-04-14T11:13:12.909Z,2.13
2023-04-14T11:16:02.953Z,5.53
2023-04-14T11:18:29.875Z,3.20
2023-04-14T11:21:08.600Z,3.47
2023-04-14T11:23:37.611Z,3.97
2023-04-14T11:26:14.391Z,1.88
2023-04-14T11:28:44.929Z,3.45
2023-04-14T11:31:14.522Z,3.40
2023-04-14T11:33:42.205Z,2.92
2023-04-14T11:36:15.181Z,4.75
2023-04-14T11:38:43.860Z,4.35
2023-04-14T11:41:11.124Z,3.58
2023-04-14T11:43:38.557Z,3.13
2023-04-14T11:46:08.057Z,4.85
2023-04-14T11:48:35.200Z,4.22
2023-04-14T11:51:03.883Z,3.85
2023-04-14T11:53:32.161Z,2.83
2023-04-14T11:56:00.994Z,4.30
2023-04-14T11:58:28.939Z,6.13
2023-04-14T12:01:00.221Z,15.75
2023-04-14T12:06:16.063Z,4.95
2023-04-14T12:08:43.108Z,4.15
2023-04-14T12:11:14.359Z,10.07
2023-04-14T12:13:42.613Z,4.85
2023-04-14T12:16:11.405Z,4.35
2023-04-14T12:18:38.355Z,6.05
2023-04-14T12:21:08.804Z,3.95
2023-04-14T12:26:12.185Z,2.40
2023-04-14T12:28:41.460Z,5.72
2023-04-14T12:31:09.924Z,4.60
2023-04-14T12:33:37.057Z,4.38
2023-04-14T12:36:12.217Z,6.45
2023-04-14T12:38:39.705Z,4.43
2023-04-14T12:41:06.651Z,4.13
2023-04-14T12:43:40.639Z,5.03
2023-04-14T12:46:08.068Z,6.05
2023-04-14T12:48:43.773Z,3.17
2023-04-14T12:51:13.649Z,4.53
2023-04-14T12:53:42.635Z,3.42
2023-04-14T12:56:19.980Z,5.60
2023-04-14T12:58:48.765Z,4.15
2023-04-14T13:01:18.447Z,5.00
2023-04-14T13:03:57.916Z,2.53
2023-04-14T13:06:25.509Z,5.50
2023-04-14T13:08:54.906Z,4.07
2023-04-14T13:11:23.816Z,4.38
2023-04-14T13:13:52.498Z,5.35
2023-04-14T13:16:21.101Z,3.60
2023-04-14T13:18:48.891Z,2.90
2023-04-14T13:21:16.602Z,3.63
2023-04-14T13:23:44.078Z,4.65
2023-04-14T13:26:11.879Z,4.60
2023-04-14T13:28:39.044Z,3.58
2023-04-14T13:31:05.968Z,3.65
2023-04-14T13:33:33.421Z,3.78
2023-04-14T13:36:04.303Z,5.25
2023-04-14T13:38:31.925Z,3.95
2023-04-14T13:40:59.426Z,3.42
2023-04-14T13:43:26.518Z,4.32
2023-04-14T13:45:57.997Z,4.63
2023-04-14T13:48:25.430Z,4.20
2023-04-14T13:50:53.813Z,2.33
2023-04-14T13:53:20.933Z,2.30
2023-04-14T13:55:47.816Z,3.60
2023-04-14T13:58:14.738Z,4.07
2023-04-14T14:00:41.828Z,2.72
2023-04-14T14:03:08.994Z,1.55
2023-04-14T14:05:36.243Z,2.35
2023-04-14T14:08:03.485Z,4.90
2023-04-14T14:10:30.751Z,3.05
2023-04-14T14:12:57.647Z,3.50
2023-04-14T14:15:24.711Z,6.65
2023-04-14T14:17:53.227Z,3.25
2023-04-14T14:20:20.696Z,2.75
2023-04-14T14:22:47.870Z,4.90
2023-04-14T14:25:20.170Z,3.08
2023-04-14T14:27:47.833Z,2.50
2023-04-14T14:30:15.189Z,2.60
2023-04-14T14:32:42.321Z,6.03
2023-04-14T14:35:09.742Z,3.42
2023-04-14T14:37:36.728Z,2.22
2023-04-14T14:40:04.184Z,4.93
2023-04-14T14:42:34.376Z,2.63
2023-04-14T14:45:01.743Z,1.92
2023-04-14T14:47:29.273Z,3.50
2023-04-14T14:50:02.791Z,3.38
2023-04-14T14:52:32.443Z,4.75
2023-04-14T14:54:59.658Z,2.85
2023-04-14T14:57:27.180Z,3.25
2023-04-14T14:59:54.369Z,5.03
2023-04-14T15:02:22.361Z,4.15
2023-04-14T15:04:49.968Z,1.80
2023-04-14T15:07:17.780Z,3.05
2023-04-14T15:09:47.093Z,1.80
2023-04-14T15:12:14.130Z,1.75
2023-04-14T15:14:41.085Z,1.73
2023-04-14T15:17:08.146Z,2.20
2023-04-14T15:19:35.090Z,2.40
2023-04-14T15:22:02.193Z,1.98
2023-04-14T15:24:29.348Z,2.63
2023-04-14T15:27:01.886Z,66.53
2023-04-14T15:29:29.006Z,2.75
2023-04-14T15:31:55.861Z,2.00
2023-04-14T15:34:23.715Z,3.70
2023-04-14T15:36:50.889Z,3.33
2023-04-14T15:39:18.204Z,2.92
2023-04-14T15:41:47.577Z,2.20
2023-04-14T15:44:14.511Z,2.67
2023-04-14T15:46:41.349Z,4.75
2023-04-14T15:49:08.473Z,2.97
2023-04-14T15:51:35.483Z,2.85
2023-04-14T15:54:02.748Z,3.35
2023-04-14T15:56:33.054Z,3.45
2023-04-14T15:58:59.980Z,3.13
2023-04-14T16:01:27.027Z,2.35
2023-04-14T16:03:54.359Z,2.97
2023-04-14T16:06:21.391Z,3.47
2023-04-14T16:08:48.336Z,4.45
2023-04-14T16:11:16.484Z,2.90
2023-04-14T16:13:46.788Z,3.40
2023-04-14T16:16:15.503Z,4.38
2023-04-14T16:18:42.662Z,4.07
2023-04-14T16:21:09.602Z,3.00
2023-04-14T16:23:36.692Z,3.00
2023-04-14T16:26:04.173Z,2.42
2023-04-14T16:28:31.509Z,1.33
2023-04-14T16:31:02.912Z,3.42
2023-04-14T16:33:31.716Z,2.50
2023-04-14T16:36:07.600Z,3.05
2023-04-14T16:38:34.846Z,3.30
2023-04-14T16:41:02.396Z,2.80
2023-04-14T16:43:30.104Z,2.03
2023-04-14T16:46:05.212Z,2.83
2023-04-14T16:48:32.807Z,3.60
2023-04-14T16:51:10.891Z,2.65
2023-04-14T16:53:41.286Z,3.22
2023-04-14T16:56:11.380Z,2.47
2023-04-14T16:58:39.088Z,2.67
2023-04-14T17:01:07.693Z,1.90
2023-04-14T17:03:35.481Z,2.85
2023-04-14T17:06:03.138Z,2.20
2023-04-14T17:08:30.129Z,2.40
2023-04-14T17:10:57.365Z,1.30
2023-04-14T17:13:24.294Z,2.65
2023-04-14T17:15:58.757Z,2.17
2023-04-14T17:18:33.697Z,2.97
2023-04-14T17:21:00.849Z,3.08
2023-04-14T17:23:27.981Z,3.25
2023-04-14T17:25:58.873Z,2.13
2023-04-14T17:28:27.330Z,2.83
2023-04-14T17:30:54.376Z,2.22
2023-04-14T17:33:22.095Z,2.45
2023-04-14T17:35:49.291Z,2.45
2023-04-14T17:38:16.543Z,2.95
2023-04-14T17:40:43.442Z,3.67
2023-04-14T17:43:10.395Z,2.63
2023-04-14T17:45:40.165Z,1.73
2023-04-14T17:48:08.650Z,7.57
2023-04-14T17:50:35.956Z,3.05
2023-04-14T17:53:02.840Z,3.10
2023-04-14T17:55:29.690Z,1.65
2023-04-14T17:57:56.657Z,2.92
2023-04-14T18:00:24.261Z,2.25
2023-04-14T18:02:52.095Z,1.30
2023-04-14T18:05:19.018Z,1.98
2023-04-14T18:07:46.909Z,2.22
2023-04-14T18:10:13.745Z,2.30
2023-04-14T18:12:40.800Z,2.65
2023-04-14T18:15:08.402Z,2.38
2023-04-14T18:17:36.610Z,3.70
2023-04-14T18:20:04.327Z,3.40
2023-04-14T18:22:32.469Z,4.43
2023-04-14T18:25:02.931Z,1.42
2023-04-14T18:29:59.708Z,4.50
2023-04-14T18:32:27.723Z,3.40
2023-04-14T18:34:54.832Z,4.88
2023-04-14T18:37:21.860Z,1.63
2023-04-14T18:39:49.350Z,2.88
2023-04-14T18:42:17.162Z,3.65
2023-04-14T18:44:44.142Z,3.60
2023-04-14T18:47:11.683Z,4.75
2023-04-14T18:49:38.561Z,4.53
2023-04-14T18:52:05.933Z,2.17
2023-04-14T18:54:33.710Z,3.13
2023-04-14T18:57:01.206Z,2.97
2023-04-14T18:59:28.938Z,2.60
2023-04-14T19:01:55.981Z,4.18
2023-04-14T19:04:23.150Z,4.28
2023-04-14T19:06:50.180Z,6.78
2023-04-14T19:09:17.110Z,7.10
2023-04-14T19:11:45.476Z,3.63
2023-04-14T19:14:12.565Z,5.20
2023-04-14T19:16:39.819Z,4.75
2023-04-14T19:19:06.878Z,5.47
2023-04-14T19:21:33.900Z,5.43
2023-04-14T19:24:00.951Z,6.97
2023-04-14T19:26:29.630Z,3.67
2023-04-14T19:28:58.898Z,2.58
2023-04-14T19:31:28.534Z,3.67
2023-04-14T19:33:56.330Z,4.95
2023-04-14T19:36:23.941Z,4.25
2023-04-14T19:38:51.682Z,5.07
2023-04-14T19:41:19.344Z,3.33
2023-04-14T19:43:46.300Z,4.03
2023-04-14T19:46:13.733Z,3.17
2023-04-14T19:48:40.780Z,2.17
2023-04-14T19:51:08.017Z,5.25
2023-04-14T19:53:35.076Z,4.35
2023-04-14T19:56:03.379Z,6.03
2023-04-14T19:58:31.309Z,9.07
2023-04-14T20:00:58.804Z,12.95
2023-04-14T20:03:27.247Z,12.45
2023-04-14T20:05:56.759Z,14.50
2023-04-14T20:08:25.622Z,13.85
2023-04-14T20:10:54.385Z,12.82
2023-04-14T20:13:24.197Z,14.85
2023-04-14T20:15:54.209Z,15.65
2023-04-14T20:18:22.785Z,16.27
2023-04-14T20:20:50.312Z,12.25
2023-04-14T20:23:17.378Z,9.60
2023-04-14T20:25:45.759Z,6.88
2023-04-14T20:28:14.019Z,7.32
2023-04-14T20:30:42.989Z,9.75
2023-04-14T20:33:10.592Z,9.68
2023-04-14T20:35:39.670Z,12.95
2023-04-14T20:38:07.550Z,17.13
2023-04-14T20:40:34.861Z,10.32
2023-04-14T20:43:02.006Z,9.63
2023-04-14T20:45:29.492Z,9.57
2023-04-14T20:47:56.668Z,12.15
2023-04-14T20:50:24.024Z,6.35
2023-04-14T20:52:51.369Z,6.13
2023-04-14T20:55:19.554Z,7.18
2023-04-14T20:58:07.729Z,7.95
2023-04-14T21:00:35.481Z,10.00
2023-04-14T21:03:03.733Z,6.45
2023-04-14T21:05:31.008Z,4.68
2023-04-14T21:07:57.889Z,9.27
2023-04-14T21:10:25.036Z,9.95
2023-04-14T21:15:40.249Z,9.77
2023-04-14T21:15:53.769Z,20.70
2023-04-14T21:18:22.504Z,16.77
2023-04-14T21:20:49.409Z,20.27
2023-04-14T21:23:17.922Z,19.85
2023-04-14T21:25:47.161Z,23.63
2023-04-14T21:28:15.277Z,14.63
2023-04-14T21:30:42.652Z,14.18
2023-04-14T21:33:09.975Z,15.85
2023-04-14T21:35:37.570Z,12.32
2023-04-14T21:38:04.614Z,14.50
2023-04-14T21:40:31.576Z,14.32
2023-04-14T21:42:58.443Z,11.55
2023-04-14T21:45:26.615Z,12.77
2023-04-14T21:47:55.306Z,10.52
2023-04-14T21:50:22.547Z,12.98
2023-04-14T21:52:49.623Z,12.43
2023-04-14T21:55:16.570Z,13.43
2023-04-14T21:57:49.157Z,12.48
2023-04-14T22:00:17.793Z,12.93
2023-04-14T22:02:45.950Z,13.43
2023-04-14T22:05:15.016Z,11.90
2023-04-14T22:07:41.925Z,13.95
2023-04-14T22:10:09.976Z,13.63
2023-04-14T22:12:39.912Z,12.32
2023-04-14T22:15:10.836Z,11.90
2023-04-14T22:17:38.915Z,11.52
2023-04-14T22:20:07.124Z,11.63
2023-04-14T22:22:34.828Z,14.73
2023-04-14T22:25:03.267Z,14.05
2023-04-14T22:27:30.187Z,17.83
2023-04-14T22:29:57.462Z,18.58
2023-04-14T22:32:24.387Z,17.20
2023-04-14T22:34:51.449Z,14.75
2023-04-14T22:37:18.277Z,12.10
2023-04-14T22:39:45.259Z,14.88
2023-04-14T22:42:12.241Z,13.77
2023-04-14T22:44:39.357Z,12.50
2023-04-14T22:47:06.346Z,14.90
2023-04-14T22:49:33.319Z,15.57
2023-04-14T22:52:00.152Z,11.40
2023-04-14T22:54:27.531Z,12.73
2023-04-14T22:56:54.484Z,13.93
2023-04-14T22:59:21.568Z,11.43
2023-04-14T23:01:48.583Z,12.10
2023-04-14T23:04:15.838Z,15.93
2023-04-14T23:06:42.894Z,13.88
2023-04-14T23:09:09.921Z,11.07
2023-04-14T23:11:37.354Z,16.83
2023-04-14T23:14:05.043Z,16.13
2023-04-14T23:16:32.451Z,14.60
2023-04-14T23:18:59.714Z,23.23
2023-04-14T23:21:27.535Z,17.85
2023-04-14T23:23:54.575Z,33.70
2023-04-14T23:26:21.761Z,56.13
2023-04-14T23:28:48.955Z,22.63
2023-04-14T23:31:17.464Z,20.92
2023-04-14T23:33:45.420Z,19.08
2023-04-14T23:36:13.457Z,24.75
2023-04-14T23:38:41.349Z,16.63
2023-04-14T23:41:08.448Z,13.60
2023-04-14T23:43:35.445Z,11.77
2023-04-14T23:46:02.681Z,11.00
2023-04-14T23:48:29.646Z,11.85
2023-04-14T23:51:01.213Z,8.50
2023-04-14T23:53:43.661Z,12.05
2023-04-14T23:56:10.748Z,10.63
2023-04-14T23:58:37.733Z,11.63
